sensor_id;sensor_type;location;lat;lon;timestamp;P1;durP1;ratioP1;P2;durP2;ratioP2
46266;SDS011;31998;48.798;15.066;2023-03-01T00:01:31;16.67;;;11.90;;
46266;SDS011;31998;48.798;15.066;2023-03-01T00:03:57;21.33;;;12.70;;
46266;SDS011;31998;48.798;15.066;2023-03-01T00:06:23;21.10;;;13.00;;
46266;SDS011;31998;48.798;15.066;2023-03-01T00:08:48;13.47;;;10.90;;
46266;SDS011;31998;48.798;15.066;2023-03-01T00:13:38;21.77;;;12.40;;
46266;SDS011;31998;48.798;15.066;2023-03-01T00:16:11;18.07;;;13.00;;
46266;SDS011;31998;48.798;15.066;2023-03-01T00:18:37;20.20;;;12.63;;
46266;SDS011;31998;48.798;15.066;2023-03-01T00:21:03;26.53;;;14.83;;
46266;SDS011;31998;48.798;15.066;2023-03-01T00:23:28;23.47;;;13.87;;
46266;SDS011;31998;48.798;15.066;2023-03-01T00:25:53;25.40;;;14.67;;
46266;SDS011;31998;48.798;15.066;2023-03-01T00:28:19;20.20;;;13.77;;
46266;SDS011;31998;48.798;15.066;2023-03-01T00:30:44;26.60;;;14.53;;
46266;SDS011;31998;48.798;15.066;2023-03-01T00:33:10;19.63;;;13.10;;
46266;SDS011;31998;48.798;15.066;2023-03-01T00:35:35;27.13;;;15.00;;
46266;SDS011;31998;48.798;15.066;2023-03-01T00:38:00;34.17;;;15.40;;
46266;SDS011;31998;48.798;15.066;2023-03-01T00:40:26;23.00;;;14.50;;
46266;SDS011;31998;48.798;15.066;2023-03-01T00:42:52;21.90;;;13.97;;
46266;SDS011;31998;48.798;15.066;2023-03-01T00:45:17;24.30;;;13.30;;
46266;SDS011;31998;48.798;15.066;2023-03-01T00:47:42;18.00;;;11.97;;
46266;SDS011;31998;48.798;15.066;2023-03-01T00:50:08;18.90;;;14.00;;
46266;SDS011;31998;48.798;15.066;2023-03-01T00:52:34;19.67;;;12.07;;
46266;SDS011;31998;48.798;15.066;2023-03-01T00:54:59;23.90;;;14.27;;
46266;SDS011;31998;48.798;15.066;2023-03-01T00:57:24;26.80;;;13.17;;
46266;SDS011;31998;48.798;15.066;2023-03-01T00:59:49;18.20;;;13.37;;
46266;SDS011;31998;48.798;15.066;2023-03-01T01:02:17;23.00;;;13.57;;
46266;SDS011;31998;48.798;15.066;2023-03-01T01:04:42;27.30;;;14.50;;
46266;SDS011;31998;48.798;15.066;2023-03-01T01:07:07;32.70;;;15.80;;
46266;SDS011;31998;48.798;15.066;2023-03-01T01:09:32;28.73;;;17.20;;
46266;SDS011;31998;48.798;15.066;2023-03-01T01:11:58;24.63;;;14.30;;
46266;SDS011;31998;48.798;15.066;2023-03-01T01:14:23;30.60;;;18.77;;
46266;SDS011;31998;48.798;15.066;2023-03-01T01:16:48;26.97;;;15.00;;
46266;SDS011;31998;48.798;15.066;2023-03-01T01:19:14;26.77;;;15.20;;
46266;SDS011;31998;48.798;15.066;2023-03-01T01:21:39;25.17;;;13.73;;
46266;SDS011;31998;48.798;15.066;2023-03-01T01:24:05;23.90;;;14.47;;
46266;SDS011;31998;48.798;15.066;2023-03-01T01:26:31;20.83;;;13.80;;
46266;SDS011;31998;48.798;15.066;2023-03-01T01:28:57;24.07;;;13.70;;
46266;SDS011;31998;48.798;15.066;2023-03-01T01:31:23;24.33;;;14.17;;
46266;SDS011;31998;48.798;15.066;2023-03-01T01:33:49;25.87;;;16.10;;
46266;SDS011;31998;48.798;15.066;2023-03-01T01:36:14;26.70;;;15.87;;
46266;SDS011;31998;48.798;15.066;2023-03-01T01:38:40;26.70;;;14.80;;
46266;SDS011;31998;48.798;15.066;2023-03-01T01:41:07;28.20;;;14.30;;
46266;SDS011;31998;48.798;15.066;2023-03-01T01:43:34;27.77;;;15.30;;
46266;SDS011;31998;48.798;15.066;2023-03-01T01:46:01;20.57;;;14.83;;
46266;SDS011;31998;48.798;15.066;2023-03-01T01:48:41;30.47;;;16.50;;
46266;SDS011;31998;48.798;15.066;2023-03-01T01:51:08;25.17;;;14.63;;
46266;SDS011;31998;48.798;15.066;2023-03-01T01:53:35;26.00;;;15.20;;
46266;SDS011;31998;48.798;15.066;2023-03-01T01:56:01;23.33;;;14.20;;
46266;SDS011;31998;48.798;15.066;2023-03-01T01:58:28;30.10;;;14.50;;
46266;SDS011;31998;48.798;15.066;2023-03-01T02:00:54;25.03;;;15.10;;
46266;SDS011;31998;48.798;15.066;2023-03-01T02:03:24;26.73;;;14.87;;
46266;SDS011;31998;48.798;15.066;2023-03-01T02:05:51;24.57;;;15.63;;
46266;SDS011;31998;48.798;15.066;2023-03-01T02:08:18;27.47;;;15.97;;
46266;SDS011;31998;48.798;15.066;2023-03-01T02:10:44;36.10;;;16.20;;
46266;SDS011;31998;48.798;15.066;2023-03-01T02:13:10;29.57;;;16.00;;
46266;SDS011;31998;48.798;15.066;2023-03-01T02:15:36;30.63;;;16.50;;
46266;SDS011;31998;48.798;15.066;2023-03-01T02:18:02;30.13;;;17.07;;
46266;SDS011;31998;48.798;15.066;2023-03-01T02:22:59;28.37;;;15.93;;
46266;SDS011;31998;48.798;15.066;2023-03-01T02:28:08;26.60;;;15.83;;
46266;SDS011;31998;48.798;15.066;2023-03-01T02:30:35;31.43;;;15.83;;
46266;SDS011;31998;48.798;15.066;2023-03-01T02:33:01;26.20;;;16.00;;
46266;SDS011;31998;48.798;15.066;2023-03-01T02:35:34;22.47;;;14.07;;
46266;SDS011;31998;48.798;15.066;2023-03-01T02:38:00;23.10;;;15.20;;
46266;SDS011;31998;48.798;15.066;2023-03-01T02:40:26;26.67;;;16.37;;
46266;SDS011;31998;48.798;15.066;2023-03-01T02:42:53;31.37;;;13.73;;
46266;SDS011;31998;48.798;15.066;2023-03-01T02:45:19;21.07;;;13.90;;
46266;SDS011;31998;48.798;15.066;2023-03-01T02:47:44;25.10;;;14.00;;
46266;SDS011;31998;48.798;15.066;2023-03-01T02:50:15;20.17;;;13.93;;
46266;SDS011;31998;48.798;15.066;2023-03-01T02:52:48;24.03;;;13.80;;
46266;SDS011;31998;48.798;15.066;2023-03-01T02:55:19;23.03;;;14.40;;
46266;SDS011;31998;48.798;15.066;2023-03-01T02:57:45;22.37;;;13.53;;
46266;SDS011;31998;48.798;15.066;2023-03-01T03:00:15;23.67;;;14.37;;
46266;SDS011;31998;48.798;15.066;2023-03-01T03:02:44;23.10;;;14.93;;
46266;SDS011;31998;48.798;15.066;2023-03-01T03:05:17;24.70;;;13.40;;
46266;SDS011;31998;48.798;15.066;2023-03-01T03:07:43;25.80;;;14.70;;
46266;SDS011;31998;48.798;15.066;2023-03-01T03:10:11;21.23;;;14.90;;
46266;SDS011;31998;48.798;15.066;2023-03-01T03:12:36;24.40;;;15.23;;
46266;SDS011;31998;48.798;15.066;2023-03-01T03:15:02;28.03;;;15.33;;
46266;SDS011;31998;48.798;15.066;2023-03-01T03:17:33;34.07;;;18.20;;
46266;SDS011;31998;48.798;15.066;2023-03-01T03:19:58;33.90;;;17.50;;
46266;SDS011;31998;48.798;15.066;2023-03-01T03:22:24;24.23;;;15.80;;
46266;SDS011;31998;48.798;15.066;2023-03-01T03:24:49;23.77;;;15.53;;
46266;SDS011;31998;48.798;15.066;2023-03-01T03:27:14;27.53;;;16.47;;
46266;SDS011;31998;48.798;15.066;2023-03-01T03:29:39;28.37;;;15.77;;
46266;SDS011;31998;48.798;15.066;2023-03-01T03:32:05;29.33;;;16.17;;
46266;SDS011;31998;48.798;15.066;2023-03-01T03:34:30;23.60;;;15.90;;
46266;SDS011;31998;48.798;15.066;2023-03-01T03:36:55;21.93;;;14.03;;
46266;SDS011;31998;48.798;15.066;2023-03-01T03:39:24;29.60;;;15.63;;
46266;SDS011;31998;48.798;15.066;2023-03-01T03:41:50;29.33;;;16.17;;
46266;SDS011;31998;48.798;15.066;2023-03-01T03:44:15;26.37;;;14.47;;
46266;SDS011;31998;48.798;15.066;2023-03-01T03:46:40;38.90;;;16.70;;
46266;SDS011;31998;48.798;15.066;2023-03-01T03:49:05;28.30;;;15.57;;
46266;SDS011;31998;48.798;15.066;2023-03-01T03:51:31;21.90;;;14.63;;
46266;SDS011;31998;48.798;15.066;2023-03-01T03:53:56;27.30;;;15.37;;
46266;SDS011;31998;48.798;15.066;2023-03-01T03:56:21;33.43;;;15.70;;
46266;SDS011;31998;48.798;15.066;2023-03-01T03:58:51;26.90;;;14.83;;
46266;SDS011;31998;48.798;15.066;2023-03-01T04:01:16;28.00;;;16.13;;
46266;SDS011;31998;48.798;15.066;2023-03-01T04:03:41;26.83;;;15.50;;
46266;SDS011;31998;48.798;15.066;2023-03-01T04:06:11;27.03;;;15.03;;
46266;SDS011;31998;48.798;15.066;2023-03-01T04:08:36;28.90;;;16.77;;
46266;SDS011;31998;48.798;15.066;2023-03-01T04:11:02;34.40;;;17.20;;
46266;SDS011;31998;48.798;15.066;2023-03-01T04:13:48;25.90;;;15.80;;
46266;SDS011;31998;48.798;15.066;2023-03-01T04:16:14;33.03;;;17.77;;
46266;SDS011;31998;48.798;15.066;2023-03-01T04:18:39;31.27;;;17.50;;
46266;SDS011;31998;48.798;15.066;2023-03-01T04:21:04;32.97;;;16.37;;
46266;SDS011;31998;48.798;15.066;2023-03-01T04:23:30;33.90;;;18.30;;
46266;SDS011;31998;48.798;15.066;2023-03-01T04:25:56;29.87;;;15.37;;
46266;SDS011;31998;48.798;15.066;2023-03-01T04:30:47;29.90;;;15.17;;
46266;SDS011;31998;48.798;15.066;2023-03-01T04:33:12;35.30;;;16.93;;
46266;SDS011;31998;48.798;15.066;2023-03-01T04:35:37;33.30;;;16.77;;
46266;SDS011;31998;48.798;15.066;2023-03-01T04:38:03;30.00;;;16.80;;
46266;SDS011;31998;48.798;15.066;2023-03-01T04:40:29;28.00;;;14.50;;
46266;SDS011;31998;48.798;15.066;2023-03-01T04:42:54;29.63;;;16.30;;
46266;SDS011;31998;48.798;15.066;2023-03-01T04:45:19;38.07;;;19.40;;
46266;SDS011;31998;48.798;15.066;2023-03-01T04:47:45;28.20;;;18.60;;
46266;SDS011;31998;48.798;15.066;2023-03-01T04:50:12;31.73;;;17.83;;
46266;SDS011;31998;48.798;15.066;2023-03-01T04:52:37;27.07;;;16.03;;
46266;SDS011;31998;48.798;15.066;2023-03-01T04:55:03;27.30;;;16.60;;
46266;SDS011;31998;48.798;15.066;2023-03-01T04:57:28;33.53;;;16.77;;
46266;SDS011;31998;48.798;15.066;2023-03-01T04:59:54;33.53;;;15.57;;
46266;SDS011;31998;48.798;15.066;2023-03-01T05:02:19;23.70;;;15.70;;
46266;SDS011;31998;48.798;15.066;2023-03-01T05:04:44;34.90;;;15.93;;
46266;SDS011;31998;48.798;15.066;2023-03-01T05:07:09;33.57;;;17.00;;
46266;SDS011;31998;48.798;15.066;2023-03-01T05:09:34;25.77;;;16.27;;
46266;SDS011;31998;48.798;15.066;2023-03-01T05:12:00;33.90;;;18.40;;
46266;SDS011;31998;48.798;15.066;2023-03-01T05:14:25;45.07;;;17.33;;
46266;SDS011;31998;48.798;15.066;2023-03-01T05:16:50;36.67;;;17.57;;
46266;SDS011;31998;48.798;15.066;2023-03-01T05:19:15;43.97;;;19.97;;
46266;SDS011;31998;48.798;15.066;2023-03-01T05:21:41;33.17;;;18.60;;
46266;SDS011;31998;48.798;15.066;2023-03-01T05:24:25;32.70;;;19.33;;
46266;SDS011;31998;48.798;15.066;2023-03-01T05:26:51;40.10;;;22.37;;
46266;SDS011;31998;48.798;15.066;2023-03-01T05:29:17;33.27;;;17.77;;
46266;SDS011;31998;48.798;15.066;2023-03-01T05:31:43;35.27;;;18.60;;
46266;SDS011;31998;48.798;15.066;2023-03-01T05:34:08;43.03;;;21.27;;
46266;SDS011;31998;48.798;15.066;2023-03-01T05:36:33;29.40;;;17.90;;
46266;SDS011;31998;48.798;15.066;2023-03-01T05:38:59;33.30;;;19.27;;
46266;SDS011;31998;48.798;15.066;2023-03-01T05:41:24;33.70;;;18.43;;
46266;SDS011;31998;48.798;15.066;2023-03-01T05:43:50;34.97;;;20.37;;
46266;SDS011;31998;48.798;15.066;2023-03-01T05:46:15;43.00;;;22.53;;
46266;SDS011;31998;48.798;15.066;2023-03-01T05:48:40;44.17;;;23.97;;
46266;SDS011;31998;48.798;15.066;2023-03-01T05:51:06;45.73;;;24.13;;
46266;SDS011;31998;48.798;15.066;2023-03-01T05:53:31;53.50;;;26.60;;
46266;SDS011;31998;48.798;15.066;2023-03-01T05:55:56;54.87;;;28.00;;
46266;SDS011;31998;48.798;15.066;2023-03-01T05:58:21;53.03;;;29.00;;
46266;SDS011;31998;48.798;15.066;2023-03-01T06:00:47;48.60;;;24.70;;
46266;SDS011;31998;48.798;15.066;2023-03-01T06:03:13;46.40;;;21.90;;
46266;SDS011;31998;48.798;15.066;2023-03-01T06:05:39;48.67;;;23.00;;
46266;SDS011;31998;48.798;15.066;2023-03-01T06:08:05;41.13;;;20.60;;
46266;SDS011;31998;48.798;15.066;2023-03-01T06:10:30;43.77;;;24.67;;
46266;SDS011;31998;48.798;15.066;2023-03-01T06:12:56;51.60;;;26.60;;
46266;SDS011;31998;48.798;15.066;2023-03-01T06:15:22;44.43;;;25.53;;
46266;SDS011;31998;48.798;15.066;2023-03-01T06:17:47;51.87;;;27.07;;
46266;SDS011;31998;48.798;15.066;2023-03-01T06:22:41;47.57;;;27.33;;
46266;SDS011;31998;48.798;15.066;2023-03-01T06:25:07;51.77;;;26.43;;
46266;SDS011;31998;48.798;15.066;2023-03-01T06:27:32;52.23;;;27.70;;
46266;SDS011;31998;48.798;15.066;2023-03-01T06:29:57;46.90;;;25.03;;
46266;SDS011;31998;48.798;15.066;2023-03-01T06:32:23;45.53;;;26.33;;
46266;SDS011;31998;48.798;15.066;2023-03-01T06:34:49;41.50;;;23.67;;
46266;SDS011;31998;48.798;15.066;2023-03-01T06:37:14;39.60;;;21.40;;
46266;SDS011;31998;48.798;15.066;2023-03-01T06:39:39;42.67;;;21.93;;
46266;SDS011;31998;48.798;15.066;2023-03-01T06:42:05;36.27;;;21.50;;
46266;SDS011;31998;48.798;15.066;2023-03-01T06:44:30;45.03;;;22.37;;
46266;SDS011;31998;48.798;15.066;2023-03-01T06:46:56;46.93;;;22.90;;
46266;SDS011;31998;48.798;15.066;2023-03-01T06:49:21;46.50;;;23.77;;
46266;SDS011;31998;48.798;15.066;2023-03-01T06:51:46;47.60;;;24.40;;
46266;SDS011;31998;48.798;15.066;2023-03-01T06:54:12;43.40;;;24.10;;
46266;SDS011;31998;48.798;15.066;2023-03-01T06:56:37;38.80;;;21.70;;
46266;SDS011;31998;48.798;15.066;2023-03-01T06:59:02;42.93;;;24.60;;
46266;SDS011;31998;48.798;15.066;2023-03-01T07:01:28;47.60;;;24.33;;
46266;SDS011;31998;48.798;15.066;2023-03-01T07:03:53;49.30;;;25.27;;
46266;SDS011;31998;48.798;15.066;2023-03-01T07:06:18;43.20;;;24.97;;
46266;SDS011;31998;48.798;15.066;2023-03-01T07:08:44;36.90;;;22.90;;
46266;SDS011;31998;48.798;15.066;2023-03-01T07:11:09;39.43;;;24.93;;
46266;SDS011;31998;48.798;15.066;2023-03-01T07:13:34;47.00;;;25.43;;
46266;SDS011;31998;48.798;15.066;2023-03-01T07:16:00;38.53;;;24.97;;
46266;SDS011;31998;48.798;15.066;2023-03-01T07:18:25;40.20;;;24.60;;
46266;SDS011;31998;48.798;15.066;2023-03-01T07:20:50;44.03;;;22.80;;
46266;SDS011;31998;48.798;15.066;2023-03-01T07:23:15;42.73;;;24.53;;
46266;SDS011;31998;48.798;15.066;2023-03-01T07:25:41;43.17;;;23.73;;
46266;SDS011;31998;48.798;15.066;2023-03-01T07:28:06;36.93;;;23.07;;
46266;SDS011;31998;48.798;15.066;2023-03-01T07:30:31;39.67;;;22.40;;
46266;SDS011;31998;48.798;15.066;2023-03-01T07:32:57;34.97;;;21.90;;
46266;SDS011;31998;48.798;15.066;2023-03-01T07:35:23;36.70;;;21.87;;
46266;SDS011;31998;48.798;15.066;2023-03-01T07:37:49;38.57;;;24.43;;
46266;SDS011;31998;48.798;15.066;2023-03-01T07:40:14;37.70;;;22.80;;
46266;SDS011;31998;48.798;15.066;2023-03-01T07:42:40;38.63;;;23.13;;
46266;SDS011;31998;48.798;15.066;2023-03-01T07:45:05;41.07;;;23.70;;
46266;SDS011;31998;48.798;15.066;2023-03-01T07:47:31;38.90;;;22.00;;
46266;SDS011;31998;48.798;15.066;2023-03-01T07:49:56;34.53;;;22.27;;
46266;SDS011;31998;48.798;15.066;2023-03-01T07:52:21;37.83;;;22.23;;
46266;SDS011;31998;48.798;15.066;2023-03-01T07:54:47;31.20;;;21.37;;
46266;SDS011;31998;48.798;15.066;2023-03-01T07:57:12;39.90;;;22.77;;
46266;SDS011;31998;48.798;15.066;2023-03-01T07:59:37;42.90;;;24.90;;
46266;SDS011;31998;48.798;15.066;2023-03-01T08:02:02;34.37;;;21.83;;
46266;SDS011;31998;48.798;15.066;2023-03-01T08:04:28;42.10;;;25.83;;
46266;SDS011;31998;48.798;15.066;2023-03-01T08:06:54;35.97;;;23.20;;
46266;SDS011;31998;48.798;15.066;2023-03-01T08:09:19;41.90;;;22.77;;
46266;SDS011;31998;48.798;15.066;2023-03-01T08:11:44;42.30;;;25.20;;
46266;SDS011;31998;48.798;15.066;2023-03-01T08:14:09;45.13;;;21.83;;
46266;SDS011;31998;48.798;15.066;2023-03-01T08:16:38;35.67;;;21.70;;
46266;SDS011;31998;48.798;15.066;2023-03-01T08:19:04;34.30;;;22.47;;
46266;SDS011;31998;48.798;15.066;2023-03-01T08:21:29;35.23;;;22.30;;
46266;SDS011;31998;48.798;15.066;2023-03-01T08:23:54;37.27;;;24.30;;
46266;SDS011;31998;48.798;15.066;2023-03-01T08:26:20;37.20;;;22.43;;
46266;SDS011;31998;48.798;15.066;2023-03-01T08:28:46;33.03;;;21.47;;
46266;SDS011;31998;48.798;15.066;2023-03-01T08:31:19;33.93;;;22.33;;
46266;SDS011;31998;48.798;15.066;2023-03-01T08:33:44;28.73;;;20.33;;
46266;SDS011;31998;48.798;15.066;2023-03-01T08:36:15;35.87;;;23.23;;
46266;SDS011;31998;48.798;15.066;2023-03-01T08:38:40;37.97;;;22.10;;
46266;SDS011;31998;48.798;15.066;2023-03-01T08:41:06;35.33;;;22.60;;
46266;SDS011;31998;48.798;15.066;2023-03-01T08:43:32;34.27;;;20.80;;
46266;SDS011;31998;48.798;15.066;2023-03-01T08:45:59;35.27;;;19.00;;
46266;SDS011;31998;48.798;15.066;2023-03-01T08:48:24;28.57;;;19.30;;
46266;SDS011;31998;48.798;15.066;2023-03-01T08:50:50;33.57;;;19.43;;
46266;SDS011;31998;48.798;15.066;2023-03-01T08:53:15;34.80;;;20.50;;
46266;SDS011;31998;48.798;15.066;2023-03-01T08:55:40;33.17;;;20.17;;
46266;SDS011;31998;48.798;15.066;2023-03-01T08:58:06;30.90;;;20.83;;
46266;SDS011;31998;48.798;15.066;2023-03-01T09:00:31;32.13;;;21.53;;
46266;SDS011;31998;48.798;15.066;2023-03-01T09:02:59;29.00;;;20.17;;
46266;SDS011;31998;48.798;15.066;2023-03-01T09:05:24;31.27;;;20.40;;
46266;SDS011;31998;48.798;15.066;2023-03-01T09:07:50;28.00;;;20.20;;
46266;SDS011;31998;48.798;15.066;2023-03-01T09:10:15;27.70;;;18.30;;
46266;SDS011;31998;48.798;15.066;2023-03-01T09:12:40;30.77;;;18.93;;
46266;SDS011;31998;48.798;15.066;2023-03-01T09:15:06;28.83;;;17.80;;
46266;SDS011;31998;48.798;15.066;2023-03-01T09:17:31;31.57;;;19.90;;
46266;SDS011;31998;48.798;15.066;2023-03-01T09:19:56;29.17;;;19.70;;
46266;SDS011;31998;48.798;15.066;2023-03-01T09:22:22;26.10;;;17.67;;
46266;SDS011;31998;48.798;15.066;2023-03-01T09:24:47;29.87;;;17.87;;
46266;SDS011;31998;48.798;15.066;2023-03-01T09:27:12;30.67;;;18.97;;
46266;SDS011;31998;48.798;15.066;2023-03-01T09:29:39;28.90;;;19.67;;
46266;SDS011;31998;48.798;15.066;2023-03-01T09:32:04;26.53;;;18.80;;
46266;SDS011;31998;48.798;15.066;2023-03-01T09:34:30;21.53;;;16.73;;
46266;SDS011;31998;48.798;15.066;2023-03-01T09:36:57;22.33;;;14.73;;
46266;SDS011;31998;48.798;15.066;2023-03-01T09:39:22;28.80;;;19.40;;
46266;SDS011;31998;48.798;15.066;2023-03-01T09:44:43;19.60;;;15.00;;
46266;SDS011;31998;48.798;15.066;2023-03-01T09:47:12;18.00;;;14.20;;
46266;SDS011;31998;48.798;15.066;2023-03-01T09:49:40;19.13;;;14.83;;
46266;SDS011;31998;48.798;15.066;2023-03-01T09:52:19;20.40;;;13.67;;
46266;SDS011;31998;48.798;15.066;2023-03-01T09:54:47;25.33;;;15.57;;
46266;SDS011;31998;48.798;15.066;2023-03-01T09:57:17;21.10;;;14.47;;
46266;SDS011;31998;48.798;15.066;2023-03-01T09:59:52;20.50;;;13.97;;
46266;SDS011;31998;48.798;15.066;2023-03-01T10:04:54;28.10;;;16.50;;
46266;SDS011;31998;48.798;15.066;2023-03-01T10:08:23;22.30;;;14.77;;
46266;SDS011;31998;48.798;15.066;2023-03-01T10:10:18;24.80;;;15.30;;
46266;SDS011;31998;48.798;15.066;2023-03-01T10:12:48;17.30;;;13.80;;
46266;SDS011;31998;48.798;15.066;2023-03-01T10:15:14;23.20;;;15.70;;
46266;SDS011;31998;48.798;15.066;2023-03-01T10:17:55;21.83;;;14.87;;
46266;SDS011;31998;48.798;15.066;2023-03-01T10:20:25;20.17;;;14.27;;
46266;SDS011;31998;48.798;15.066;2023-03-01T10:22:51;23.57;;;14.50;;
46266;SDS011;31998;48.798;15.066;2023-03-01T10:28:06;19.10;;;12.63;;
46266;SDS011;31998;48.798;15.066;2023-03-01T10:30:35;17.70;;;13.00;;
46266;SDS011;31998;48.798;15.066;2023-03-01T10:33:03;21.43;;;13.77;;
46266;SDS011;31998;48.798;15.066;2023-03-01T10:35:31;16.30;;;12.40;;
46266;SDS011;31998;48.798;15.066;2023-03-01T10:38:04;19.07;;;12.70;;
46266;SDS011;31998;48.798;15.066;2023-03-01T10:40:31;17.70;;;13.40;;
46266;SDS011;31998;48.798;15.066;2023-03-01T10:42:57;16.50;;;11.73;;
46266;SDS011;31998;48.798;15.066;2023-03-01T10:50:38;16.70;;;11.80;;
46266;SDS011;31998;48.798;15.066;2023-03-01T10:53:08;19.10;;;12.70;;
46266;SDS011;31998;48.798;15.066;2023-03-01T10:55:41;19.20;;;11.37;;
46266;SDS011;31998;48.798;15.066;2023-03-01T11:00:32;15.33;;;12.83;;
46266;SDS011;31998;48.798;15.066;2023-03-01T11:05:23;16.33;;;12.43;;
46266;SDS011;31998;48.798;15.066;2023-03-01T11:07:53;13.53;;;11.50;;
46266;SDS011;31998;48.798;15.066;2023-03-01T11:10:26;13.33;;;11.10;;
46266;SDS011;31998;48.798;15.066;2023-03-01T11:12:52;15.37;;;11.63;;
46266;SDS011;31998;48.798;15.066;2023-03-01T11:15:25;36.00;;;11.00;;
46266;SDS011;31998;48.798;15.066;2023-03-01T11:17:51;12.77;;;11.00;;
46266;SDS011;31998;48.798;15.066;2023-03-01T11:20:33;18.20;;;11.83;;
46266;SDS011;31998;48.798;15.066;2023-03-01T11:23:01;14.40;;;11.27;;
46266;SDS011;31998;48.798;15.066;2023-03-01T11:25:29;15.73;;;12.80;;
46266;SDS011;31998;48.798;15.066;2023-03-01T11:27:56;14.90;;;12.13;;
46266;SDS011;31998;48.798;15.066;2023-03-01T11:30:27;14.13;;;11.83;;
46266;SDS011;31998;48.798;15.066;2023-03-01T11:35:28;16.07;;;11.83;;
46266;SDS011;31998;48.798;15.066;2023-03-01T11:40:32;13.47;;;11.30;;
46266;SDS011;31998;48.798;15.066;2023-03-01T11:45:26;20.80;;;12.30;;
46266;SDS011;31998;48.798;15.066;2023-03-01T11:50:28;21.97;;;12.80;;
46266;SDS011;31998;48.798;15.066;2023-03-01T11:52:58;15.70;;;11.60;;
46266;SDS011;31998;48.798;15.066;2023-03-01T12:11:23;14.70;;;12.50;;
46266;SDS011;31998;48.798;15.066;2023-03-01T12:24:44;16.97;;;13.20;;
46266;SDS011;31998;48.798;15.066;2023-03-01T12:27:26;19.33;;;14.80;;
46266;SDS011;31998;48.798;15.066;2023-03-01T12:32:40;21.03;;;14.90;;
46266;SDS011;31998;48.798;15.066;2023-03-01T12:43:20;23.37;;;15.00;;
46266;SDS011;31998;48.798;15.066;2023-03-01T12:48:17;19.97;;;14.00;;
46266;SDS011;31998;48.798;15.066;2023-03-01T12:50:48;19.33;;;12.53;;
46266;SDS011;31998;48.798;15.066;2023-03-01T12:53:19;17.23;;;14.13;;
46266;SDS011;31998;48.798;15.066;2023-03-01T12:55:44;16.90;;;13.20;;
46266;SDS011;31998;48.798;15.066;2023-03-01T13:03:29;20.77;;;14.00;;
46266;SDS011;31998;48.798;15.066;2023-03-01T13:11:10;24.77;;;14.60;;
46266;SDS011;31998;48.798;15.066;2023-03-01T13:13:36;20.30;;;14.20;;
46266;SDS011;31998;48.798;15.066;2023-03-01T13:16:19;21.27;;;15.20;;
46266;SDS011;31998;48.798;15.066;2023-03-01T13:18:45;20.63;;;14.90;;
46266;SDS011;31998;48.798;15.066;2023-03-01T13:21:10;19.70;;;13.83;;
46266;SDS011;31998;48.798;15.066;2023-03-01T13:23:36;18.80;;;15.10;;
46266;SDS011;31998;48.798;15.066;2023-03-01T13:26:03;22.23;;;16.50;;
46266;SDS011;31998;48.798;15.066;2023-03-01T13:31:01;24.20;;;17.23;;
46266;SDS011;31998;48.798;15.066;2023-03-01T13:35:56;23.57;;;16.20;;
46266;SDS011;31998;48.798;15.066;2023-03-01T13:41:02;25.13;;;16.10;;
46266;SDS011;31998;48.798;15.066;2023-03-01T13:43:28;24.13;;;15.43;;
46266;SDS011;31998;48.798;15.066;2023-03-01T13:45:54;22.83;;;14.83;;
46266;SDS011;31998;48.798;15.066;2023-03-01T13:48:24;28.77;;;18.40;;
46266;SDS011;31998;48.798;15.066;2023-03-01T13:50:54;24.30;;;15.50;;
46266;SDS011;31998;48.798;15.066;2023-03-01T13:53:22;21.90;;;16.03;;
46266;SDS011;31998;48.798;15.066;2023-03-01T13:55:55;17.17;;;14.27;;
46266;SDS011;31998;48.798;15.066;2023-03-01T13:58:28;25.40;;;17.30;;
46266;SDS011;31998;48.798;15.066;2023-03-01T14:01:04;20.17;;;16.10;;
46266;SDS011;31998;48.798;15.066;2023-03-01T14:03:30;22.47;;;15.80;;
46266;SDS011;31998;48.798;15.066;2023-03-01T14:06:07;30.87;;;16.40;;
46266;SDS011;31998;48.798;15.066;2023-03-01T14:08:33;18.50;;;15.43;;
46266;SDS011;31998;48.798;15.066;2023-03-01T14:21:29;25.90;;;14.37;;
46266;SDS011;31998;48.798;15.066;2023-03-01T14:23:55;20.00;;;15.23;;
46266;SDS011;31998;48.798;15.066;2023-03-01T14:26:21;20.00;;;14.30;;
46266;SDS011;31998;48.798;15.066;2023-03-01T14:28:47;21.40;;;14.13;;
46266;SDS011;31998;48.798;15.066;2023-03-01T14:34:16;19.83;;;14.30;;
46266;SDS011;31998;48.798;15.066;2023-03-01T14:36:42;25.07;;;14.90;;
46266;SDS011;31998;48.798;15.066;2023-03-01T14:39:16;24.33;;;16.30;;
46266;SDS011;31998;48.798;15.066;2023-03-01T14:41:41;20.43;;;14.57;;
46266;SDS011;31998;48.798;15.066;2023-03-01T14:44:07;22.87;;;14.67;;
46266;SDS011;31998;48.798;15.066;2023-03-01T14:46:41;23.70;;;15.60;;
46266;SDS011;31998;48.798;15.066;2023-03-01T14:49:11;22.40;;;14.73;;
46266;SDS011;31998;48.798;15.066;2023-03-01T14:51:42;23.90;;;13.90;;
46266;SDS011;31998;48.798;15.066;2023-03-01T14:54:20;26.67;;;14.97;;
46266;SDS011;31998;48.798;15.066;2023-03-01T14:56:48;23.63;;;13.67;;
46266;SDS011;31998;48.798;15.066;2023-03-01T14:59:13;22.43;;;12.60;;
46266;SDS011;31998;48.798;15.066;2023-03-01T15:01:40;19.70;;;14.10;;
46266;SDS011;31998;48.798;15.066;2023-03-01T15:04:06;17.23;;;13.03;;
46266;SDS011;31998;48.798;15.066;2023-03-01T15:06:33;18.70;;;13.10;;
46266;SDS011;31998;48.798;15.066;2023-03-01T15:08:58;17.70;;;13.37;;
46266;SDS011;31998;48.798;15.066;2023-03-01T15:11:27;17.27;;;13.13;;
46266;SDS011;31998;48.798;15.066;2023-03-01T15:13:53;22.00;;;14.53;;
46266;SDS011;31998;48.798;15.066;2023-03-01T15:16:23;15.53;;;13.00;;
46266;SDS011;31998;48.798;15.066;2023-03-01T15:19:15;16.80;;;13.20;;
46266;SDS011;31998;48.798;15.066;2023-03-01T15:21:38;17.33;;;13.00;;
46266;SDS011;31998;48.798;15.066;2023-03-01T15:26:30;17.40;;;13.30;;
46266;SDS011;31998;48.798;15.066;2023-03-01T15:28:55;19.13;;;13.20;;
46266;SDS011;31998;48.798;15.066;2023-03-01T15:31:32;17.27;;;12.73;;
46266;SDS011;31998;48.798;15.066;2023-03-01T15:36:44;21.47;;;14.57;;
46266;SDS011;31998;48.798;15.066;2023-03-01T15:39:27;18.30;;;12.90;;
46266;SDS011;31998;48.798;15.066;2023-03-01T15:41:55;21.50;;;14.10;;
46266;SDS011;31998;48.798;15.066;2023-03-01T15:44:27;19.20;;;15.80;;
46266;SDS011;31998;48.798;15.066;2023-03-01T15:46:53;22.10;;;15.20;;
46266;SDS011;31998;48.798;15.066;2023-03-01T15:49:23;21.90;;;12.73;;
46266;SDS011;31998;48.798;15.066;2023-03-01T15:51:50;20.43;;;12.87;;
46266;SDS011;31998;48.798;15.066;2023-03-01T15:54:20;16.17;;;13.90;;
46266;SDS011;31998;48.798;15.066;2023-03-01T15:56:46;19.30;;;13.87;;
46266;SDS011;31998;48.798;15.066;2023-03-01T15:59:11;20.33;;;14.20;;
46266;SDS011;31998;48.798;15.066;2023-03-01T16:01:39;25.70;;;13.87;;
46266;SDS011;31998;48.798;15.066;2023-03-01T16:04:04;18.27;;;13.90;;
46266;SDS011;31998;48.798;15.066;2023-03-01T16:06:30;20.80;;;13.00;;